Ophir, CO (81426)

3:24 AM MST on December 04, 2016 (GMT -0700)
Upper Benchmark | | Change Station

Elev 10118 ft 37.92 °N, 107.86 °W | Updated 19 seconds ago

Clear
Clear
7.3 °F
Feels Like 7 °F
N
0.0
Wind Variable Wind from South
Gusts 0.0 mph

Today
High -- | Low -- °F
--% Chance of Precip.
Yesterday
High -- | Low -- °F
Precip. -- in
Pressure 30.16 in
Visibility 10.0 miles
Clouds Clear
Windchill 7 °F
Dew Point -2 °F
Humidity 65%
Rainfall 0.00 in
Snow Depth Not available.
7:11 AM 4:52 PM
Waxing Crescent, 21% visible
METAR KTEX 041015Z AUTO 13007KT 10SM CLR M11/M15 A3016 RMK AO2 T11121151
Pressure 30.16 in
Visibility 10.0 miles
Clouds Clear
Windchill 7 °F
Dew Point -2 °F
Humidity 65%
Rainfall 0.00 in
Snow Depth Not available.
7:11 AM 4:52 PM
Waxing Crescent, 21% visible
METAR KTEX 041015Z AUTO 13007KT 10SM CLR M11/M15 A3016 RMK AO2 T11121151

10-Day Weather Forecast

Almanac

Astronomy

Dec. 04, 2016 Rise Set
Actual Time
Civil Twilight
Nautical Twilight
Astronomical Twilight
Moon
Length of Visible Light
Length of Day
Tomorrow will be .
, % of the Moon is Illuminated

Today's Extremes

State Highs State Lows

Community

WunderPhotos

Upload Photos

1,955,591 photos uploaded!

WunderBlog® & News

Nearby

Air Quality

  Air Quality AQ Index Pollutant
Not available.

Snow Depth

Station Depth Elevation

Earthquake Activity

City Distance Mag. Time & Date
Minimum magnitude displayed is 2.5.

Coastal Water Temperatures

Place Temperature

Stations

Nearby Weather Stations

Station Location Temp. Windchill Dew Point Humidity Wind Precip. Elev Updated Type
                   

Watches & Warnings

There are currently no watches in effect.